sensor_id;sensor_type;location;lat;lon;timestamp;temperature;humidity
24384;DHT22;12504;52.870;8.798;2023-05-29T00:02:02;10.20;99.90
24384;DHT22;12504;52.870;8.798;2023-05-29T00:04:27;10.20;99.90
24384;DHT22;12504;52.870;8.798;2023-05-29T00:06:53;10.20;99.90
24384;DHT22;12504;52.870;8.798;2023-05-29T00:09:18;10.10;99.90
24384;DHT22;12504;52.870;8.798;2023-05-29T00:11:44;10.10;99.90
24384;DHT22;12504;52.870;8.798;2023-05-29T00:14:12;10.10;99.90
24384;DHT22;12504;52.870;8.798;2023-05-29T00:16:39;10.10;99.90
24384;DHT22;12504;52.870;8.798;2023-05-29T00:19:05;10.10;99.90
24384;DHT22;12504;52.870;8.798;2023-05-29T00:21:30;10.00;99.90
24384;DHT22;12504;52.870;8.798;2023-05-29T00:23:56;10.00;99.90
24384;DHT22;12504;52.870;8.798;2023-05-29T00:26:21;9.90;99.90
24384;DHT22;12504;52.870;8.798;2023-05-29T00:28:53;9.90;99.90
24384;DHT22;12504;52.870;8.798;2023-05-29T00:31:18;9.80;99.90
24384;DHT22;12504;52.870;8.798;2023-05-29T00:33:44;9.80;99.90
24384;DHT22;12504;52.870;8.798;2023-05-29T00:36:10;9.80;99.90
24384;DHT22;12504;52.870;8.798;2023-05-29T00:38:35;9.80;99.90
24384;DHT22;12504;52.870;8.798;2023-05-29T00:41:01;9.70;99.90
24384;DHT22;12504;52.870;8.798;2023-05-29T00:43:28;9.70;99.90
24384;DHT22;12504;52.870;8.798;2023-05-29T00:45:53;9.60;99.90
24384;DHT22;12504;52.870;8.798;2023-05-29T00:48:19;9.60;99.90
24384;DHT22;12504;52.870;8.798;2023-05-29T00:50:45;9.60;99.90
24384;DHT22;12504;52.870;8.798;2023-05-29T00:53:10;9.60;99.90
24384;DHT22;12504;52.870;8.798;2023-05-29T00:55:36;9.60;99.90
24384;DHT22;12504;52.870;8.798;2023-05-29T00:58:02;9.50;99.90
24384;DHT22;12504;52.870;8.798;2023-05-29T01:00:28;9.60;99.90
24384;DHT22;12504;52.870;8.798;2023-05-29T01:02:55;9.50;99.90
24384;DHT22;12504;52.870;8.798;2023-05-29T01:05:22;9.60;99.90
24384;DHT22;12504;52.870;8.798;2023-05-29T01:07:48;9.50;99.90
24384;DHT22;12504;52.870;8.798;2023-05-29T01:10:14;9.50;99.90
24384;DHT22;12504;52.870;8.798;2023-05-29T01:12:49;9.50;99.90
24384;DHT22;12504;52.870;8.798;2023-05-29T01:18:15;9.60;99.90
24384;DHT22;12504;52.870;8.798;2023-05-29T01:20:48;9.60;99.90
24384;DHT22;12504;52.870;8.798;2023-05-29T01:28:27;9.70;99.90
24384;DHT22;12504;52.870;8.798;2023-05-29T01:30:56;9.80;99.90
24384;DHT22;12504;52.870;8.798;2023-05-29T01:33:23;9.80;99.90
24384;DHT22;12504;52.870;8.798;2023-05-29T01:35:50;9.90;99.90
24384;DHT22;12504;52.870;8.798;2023-05-29T01:38:15;9.90;99.90
24384;DHT22;12504;52.870;8.798;2023-05-29T01:40:42;9.90;99.90
24384;DHT22;12504;52.870;8.798;2023-05-29T01:43:08;9.90;99.90
24384;DHT22;12504;52.870;8.798;2023-05-29T01:45:34;9.90;99.90
24384;DHT22;12504;52.870;8.798;2023-05-29T01:48:00;9.90;99.90
24384;DHT22;12504;52.870;8.798;2023-05-29T01:50:26;9.90;99.90
24384;DHT22;12504;52.870;8.798;2023-05-29T01:52:52;10.00;99.90
24384;DHT22;12504;52.870;8.798;2023-05-29T01:55:18;10.00;99.90
24384;DHT22;12504;52.870;8.798;2023-05-29T01:57:44;10.00;99.90
24384;DHT22;12504;52.870;8.798;2023-05-29T02:00:11;9.90;99.90
24384;DHT22;12504;52.870;8.798;2023-05-29T02:02:42;9.90;99.90
24384;DHT22;12504;52.870;8.798;2023-05-29T02:05:08;9.80;99.90
24384;DHT22;12504;52.870;8.798;2023-05-29T02:07:34;9.70;99.90
24384;DHT22;12504;52.870;8.798;2023-05-29T02:10:04;9.60;99.90
24384;DHT22;12504;52.870;8.798;2023-05-29T02:12:29;9.50;99.90
24384;DHT22;12504;52.870;8.798;2023-05-29T02:14:55;9.50;99.90
24384;DHT22;12504;52.870;8.798;2023-05-29T02:17:22;9.50;99.90
24384;DHT22;12504;52.870;8.798;2023-05-29T02:19:47;9.50;99.90
24384;DHT22;12504;52.870;8.798;2023-05-29T02:22:13;9.50;99.90
24384;DHT22;12504;52.870;8.798;2023-05-29T02:24:39;9.50;99.90
24384;DHT22;12504;52.870;8.798;2023-05-29T02:27:06;9.50;99.90
24384;DHT22;12504;52.870;8.798;2023-05-29T02:29:33;9.50;99.90
24384;DHT22;12504;52.870;8.798;2023-05-29T02:31:58;9.50;99.90
24384;DHT22;12504;52.870;8.798;2023-05-29T02:34:24;9.50;99.90
24384;DHT22;12504;52.870;8.798;2023-05-29T02:36:50;9.50;99.90
24384;DHT22;12504;52.870;8.798;2023-05-29T02:39:17;9.50;99.90
24384;DHT22;12504;52.870;8.798;2023-05-29T02:41:43;9.60;99.90
24384;DHT22;12504;52.870;8.798;2023-05-29T02:44:08;9.50;99.90
24384;DHT22;12504;52.870;8.798;2023-05-29T02:46:34;9.50;99.90
24384;DHT22;12504;52.870;8.798;2023-05-29T02:48:59;9.50;99.90
24384;DHT22;12504;52.870;8.798;2023-05-29T02:51:25;9.60;99.90
24384;DHT22;12504;52.870;8.798;2023-05-29T02:53:50;9.60;99.90
24384;DHT22;12504;52.870;8.798;2023-05-29T02:56:16;9.60;99.90
24384;DHT22;12504;52.870;8.798;2023-05-29T02:58:42;9.60;99.90
24384;DHT22;12504;52.870;8.798;2023-05-29T03:01:07;9.60;99.90
24384;DHT22;12504;52.870;8.798;2023-05-29T03:03:33;9.60;99.90
24384;DHT22;12504;52.870;8.798;2023-05-29T03:05:59;9.60;99.90
24384;DHT22;12504;52.870;8.798;2023-05-29T03:08:26;9.60;99.90
24384;DHT22;12504;52.870;8.798;2023-05-29T03:10:53;9.60;99.90
24384;DHT22;12504;52.870;8.798;2023-05-29T03:13:20;9.60;99.90
24384;DHT22;12504;52.870;8.798;2023-05-29T03:15:53;9.60;99.90
24384;DHT22;12504;52.870;8.798;2023-05-29T03:18:22;9.60;99.90
24384;DHT22;12504;52.870;8.798;2023-05-29T03:20:48;9.60;99.90
24384;DHT22;12504;52.870;8.798;2023-05-29T03:23:16;9.60;99.90
24384;DHT22;12504;52.870;8.798;2023-05-29T03:25:42;9.60;99.90
24384;DHT22;12504;52.870;8.798;2023-05-29T03:28:08;9.50;99.90
24384;DHT22;12504;52.870;8.798;2023-05-29T03:30:35;9.50;99.90
24384;DHT22;12504;52.870;8.798;2023-05-29T03:33:01;9.50;99.90
24384;DHT22;12504;52.870;8.798;2023-05-29T03:35:43;9.60;99.90
24384;DHT22;12504;52.870;8.798;2023-05-29T03:38:10;9.60;99.90
24384;DHT22;12504;52.870;8.798;2023-05-29T03:40:36;9.50;99.90
24384;DHT22;12504;52.870;8.798;2023-05-29T03:43:03;9.40;99.90
24384;DHT22;12504;52.870;8.798;2023-05-29T03:45:29;9.50;99.90
24384;DHT22;12504;52.870;8.798;2023-05-29T03:47:55;9.40;99.90
24384;DHT22;12504;52.870;8.798;2023-05-29T03:50:21;9.40;99.90
24384;DHT22;12504;52.870;8.798;2023-05-29T03:52:46;9.40;99.90
24384;DHT22;12504;52.870;8.798;2023-05-29T03:55:13;9.30;99.90
24384;DHT22;12504;52.870;8.798;2023-05-29T03:57:40;9.30;99.90
24384;DHT22;12504;52.870;8.798;2023-05-29T04:00:10;9.30;99.90
24384;DHT22;12504;52.870;8.798;2023-05-29T04:02:38;9.20;99.90
24384;DHT22;12504;52.870;8.798;2023-05-29T04:05:05;9.30;99.90
24384;DHT22;12504;52.870;8.798;2023-05-29T04:07:41;9.30;99.90
24384;DHT22;12504;52.870;8.798;2023-05-29T04:10:07;9.30;99.90
24384;DHT22;12504;52.870;8.798;2023-05-29T04:12:33;9.30;99.90
24384;DHT22;12504;52.870;8.798;2023-05-29T04:14:59;9.30;99.90
24384;DHT22;12504;52.870;8.798;2023-05-29T04:17:25;9.30;99.90
24384;DHT22;12504;52.870;8.798;2023-05-29T04:19:51;9.30;99.90
24384;DHT22;12504;52.870;8.798;2023-05-29T04:22:16;9.30;99.90
24384;DHT22;12504;52.870;8.798;2023-05-29T04:24:42;9.40;99.90
24384;DHT22;12504;52.870;8.798;2023-05-29T04:27:08;9.40;99.90
24384;DHT22;12504;52.870;8.798;2023-05-29T04:29:37;9.50;99.90
24384;DHT22;12504;52.870;8.798;2023-05-29T04:32:06;9.60;99.90
24384;DHT22;12504;52.870;8.798;2023-05-29T04:34:31;9.60;99.90
24384;DHT22;12504;52.870;8.798;2023-05-29T04:36:57;9.60;99.90
24384;DHT22;12504;52.870;8.798;2023-05-29T04:39:24;9.70;99.90
24384;DHT22;12504;52.870;8.798;2023-05-29T04:41:51;9.70;99.90
24384;DHT22;12504;52.870;8.798;2023-05-29T04:44:23;9.70;99.90
24384;DHT22;12504;52.870;8.798;2023-05-29T04:46:52;9.80;99.90
24384;DHT22;12504;52.870;8.798;2023-05-29T04:49:19;9.80;99.90
24384;DHT22;12504;52.870;8.798;2023-05-29T04:51:46;9.80;99.90
24384;DHT22;12504;52.870;8.798;2023-05-29T04:54:12;9.80;99.90
24384;DHT22;12504;52.870;8.798;2023-05-29T04:56:39;9.80;99.90
24384;DHT22;12504;52.870;8.798;2023-05-29T04:59:11;9.90;99.90
24384;DHT22;12504;52.870;8.798;2023-05-29T05:01:37;9.90;99.90
24384;DHT22;12504;52.870;8.798;2023-05-29T05:04:03;9.90;99.90
24384;DHT22;12504;52.870;8.798;2023-05-29T05:06:29;9.90;99.90
24384;DHT22;12504;52.870;8.798;2023-05-29T05:08:54;10.00;99.90
24384;DHT22;12504;52.870;8.798;2023-05-29T05:11:21;10.10;99.90
24384;DHT22;12504;52.870;8.798;2023-05-29T05:13:47;10.10;99.90
24384;DHT22;12504;52.870;8.798;2023-05-29T05:16:13;10.20;99.90
24384;DHT22;12504;52.870;8.798;2023-05-29T05:18:40;10.30;99.90
24384;DHT22;12504;52.870;8.798;2023-05-29T05:21:07;10.30;99.90
24384;DHT22;12504;52.870;8.798;2023-05-29T05:23:34;10.40;99.90
24384;DHT22;12504;52.870;8.798;2023-05-29T05:26:01;10.50;99.90
24384;DHT22;12504;52.870;8.798;2023-05-29T05:28:26;10.60;99.90
24384;DHT22;12504;52.870;8.798;2023-05-29T05:30:52;10.50;99.90
24384;DHT22;12504;52.870;8.798;2023-05-29T05:33:18;10.60;99.90
24384;DHT22;12504;52.870;8.798;2023-05-29T05:35:43;10.60;99.90
24384;DHT22;12504;52.870;8.798;2023-05-29T05:38:09;10.70;99.90
24384;DHT22;12504;52.870;8.798;2023-05-29T05:40:35;10.80;99.90
24384;DHT22;12504;52.870;8.798;2023-05-29T05:43:11;10.80;99.90
24384;DHT22;12504;52.870;8.798;2023-05-29T05:45:57;10.60;99.90
24384;DHT22;12504;52.870;8.798;2023-05-29T05:48:24;10.50;99.90
24384;DHT22;12504;52.870;8.798;2023-05-29T05:50:49;10.40;99.90
24384;DHT22;12504;52.870;8.798;2023-05-29T05:53:15;10.40;99.90
24384;DHT22;12504;52.870;8.798;2023-05-29T05:55:42;10.40;99.90
24384;DHT22;12504;52.870;8.798;2023-05-29T05:58:08;10.50;99.90
24384;DHT22;12504;52.870;8.798;2023-05-29T06:00:35;10.60;99.90
24384;DHT22;12504;52.870;8.798;2023-05-29T06:03:01;10.60;99.90
24384;DHT22;12504;52.870;8.798;2023-05-29T06:05:55;10.70;99.90
24384;DHT22;12504;52.870;8.798;2023-05-29T06:08:20;10.80;99.90
24384;DHT22;12504;52.870;8.798;2023-05-29T06:10:46;11.20;99.90
24384;DHT22;12504;52.870;8.798;2023-05-29T06:13:12;11.30;99.90
24384;DHT22;12504;52.870;8.798;2023-05-29T06:15:46;11.40;99.90
24384;DHT22;12504;52.870;8.798;2023-05-29T06:18:12;11.60;99.90
24384;DHT22;12504;52.870;8.798;2023-05-29T06:20:38;11.80;99.90
24384;DHT22;12504;52.870;8.798;2023-05-29T06:23:03;12.00;99.90
24384;DHT22;12504;52.870;8.798;2023-05-29T06:25:29;12.10;99.90
24384;DHT22;12504;52.870;8.798;2023-05-29T06:27:59;12.30;99.90
24384;DHT22;12504;52.870;8.798;2023-05-29T06:30:25;12.30;97.10
24384;DHT22;12504;52.870;8.798;2023-05-29T06:32:50;12.40;97.60
24384;DHT22;12504;52.870;8.798;2023-05-29T06:35:16;12.50;86.20
24384;DHT22;12504;52.870;8.798;2023-05-29T06:37:42;12.80;90.60
24384;DHT22;12504;52.870;8.798;2023-05-29T06:40:08;12.80;82.90
24384;DHT22;12504;52.870;8.798;2023-05-29T06:42:34;12.80;77.40
24384;DHT22;12504;52.870;8.798;2023-05-29T06:45:07;12.90;71.40
24384;DHT22;12504;52.870;8.798;2023-05-29T06:47:33;12.60;77.00
24384;DHT22;12504;52.870;8.798;2023-05-29T06:50:00;12.80;80.50
24384;DHT22;12504;52.870;8.798;2023-05-29T06:52:25;12.90;82.10
24384;DHT22;12504;52.870;8.798;2023-05-29T06:55:20;12.90;74.70
24384;DHT22;12504;52.870;8.798;2023-05-29T06:57:46;13.00;78.20
24384;DHT22;12504;52.870;8.798;2023-05-29T07:00:12;13.20;68.90
24384;DHT22;12504;52.870;8.798;2023-05-29T07:02:44;13.10;70.00
24384;DHT22;12504;52.870;8.798;2023-05-29T07:05:10;13.00;59.40
24384;DHT22;12504;52.870;8.798;2023-05-29T07:07:36;13.00;65.80
24384;DHT22;12504;52.870;8.798;2023-05-29T07:10:02;13.20;63.40
24384;DHT22;12504;52.870;8.798;2023-05-29T07:12:29;13.20;64.50
24384;DHT22;12504;52.870;8.798;2023-05-29T07:14:55;13.20;61.40
24384;DHT22;12504;52.870;8.798;2023-05-29T07:17:20;13.10;59.40
24384;DHT22;12504;52.870;8.798;2023-05-29T07:19:51;13.10;59.00
24384;DHT22;12504;52.870;8.798;2023-05-29T07:22:17;13.10;55.20
24384;DHT22;12504;52.870;8.798;2023-05-29T07:24:43;13.10;53.60
24384;DHT22;12504;52.870;8.798;2023-05-29T07:27:08;13.10;56.30
24384;DHT22;12504;52.870;8.798;2023-05-29T07:29:34;13.10;45.40
24384;DHT22;12504;52.870;8.798;2023-05-29T07:31:59;13.10;44.70
24384;DHT22;12504;52.870;8.798;2023-05-29T07:34:25;13.30;67.00
24384;DHT22;12504;52.870;8.798;2023-05-29T07:37:01;13.40;59.50
24384;DHT22;12504;52.870;8.798;2023-05-29T07:39:27;13.60;37.70
24384;DHT22;12504;52.870;8.798;2023-05-29T07:41:53;13.50;30.80
24384;DHT22;12504;52.870;8.798;2023-05-29T07:44:19;13.30;36.30
24384;DHT22;12504;52.870;8.798;2023-05-29T07:46:45;13.20;44.50
24384;DHT22;12504;52.870;8.798;2023-05-29T07:49:40;13.40;54.10
24384;DHT22;12504;52.870;8.798;2023-05-29T07:52:07;13.50;53.70
24384;DHT22;12504;52.870;8.798;2023-05-29T07:54:33;13.80;60.20
24384;DHT22;12504;52.870;8.798;2023-05-29T07:57:00;13.80;44.20
24384;DHT22;12504;52.870;8.798;2023-05-29T07:59:26;13.80;29.40
24384;DHT22;12504;52.870;8.798;2023-05-29T08:01:51;13.80;31.10
24384;DHT22;12504;52.870;8.798;2023-05-29T08:04:37;13.90;36.00
24384;DHT22;12504;52.870;8.798;2023-05-29T08:07:03;13.90;35.20
24384;DHT22;12504;52.870;8.798;2023-05-29T08:09:32;14.10;36.00
24384;DHT22;12504;52.870;8.798;2023-05-29T08:11:57;14.20;27.30
24384;DHT22;12504;52.870;8.798;2023-05-29T08:14:25;14.30;23.20
24384;DHT22;12504;52.870;8.798;2023-05-29T08:16:52;14.40;18.40
24384;DHT22;12504;52.870;8.798;2023-05-29T08:19:18;14.60;18.20
24384;DHT22;12504;52.870;8.798;2023-05-29T08:21:43;14.60;23.00
24384;DHT22;12504;52.870;8.798;2023-05-29T08:24:09;14.80;23.00
24384;DHT22;12504;52.870;8.798;2023-05-29T08:26:35;14.90;9.50
24384;DHT22;12504;52.870;8.798;2023-05-29T08:29:00;15.00;7.00
24384;DHT22;12504;52.870;8.798;2023-05-29T08:31:26;15.00;1.00
24384;DHT22;12504;52.870;8.798;2023-05-29T08:33:52;14.90;6.10
24384;DHT22;12504;52.870;8.798;2023-05-29T08:36:18;15.00;1.00
24384;DHT22;12504;52.870;8.798;2023-05-29T08:38:47;15.00;1.00
24384;DHT22;12504;52.870;8.798;2023-05-29T08:41:15;15.00;1.00
24384;DHT22;12504;52.870;8.798;2023-05-29T08:43:42;15.00;4.90
24384;DHT22;12504;52.870;8.798;2023-05-29T08:46:08;15.10;1.20
24384;DHT22;12504;52.870;8.798;2023-05-29T08:48:34;15.30;9.60
24384;DHT22;12504;52.870;8.798;2023-05-29T08:51:02;15.50;1.00
24384;DHT22;12504;52.870;8.798;2023-05-29T08:53:29;15.50;1.00
24384;DHT22;12504;52.870;8.798;2023-05-29T08:55:56;15.80;1.00
24384;DHT22;12504;52.870;8.798;2023-05-29T08:58:22;15.90;1.00
24384;DHT22;12504;52.870;8.798;2023-05-29T09:00:51;15.90;1.00
24384;DHT22;12504;52.870;8.798;2023-05-29T09:03:17;15.90;1.00
24384;DHT22;12504;52.870;8.798;2023-05-29T09:05:43;16.00;1.00
24384;DHT22;12504;52.870;8.798;2023-05-29T09:08:10;16.00;1.00
24384;DHT22;12504;52.870;8.798;2023-05-29T09:10:38;15.90;1.00
24384;DHT22;12504;52.870;8.798;2023-05-29T09:13:05;16.10;1.00
24384;DHT22;12504;52.870;8.798;2023-05-29T09:15:31;16.30;1.00
24384;DHT22;12504;52.870;8.798;2023-05-29T09:17:57;16.40;1.00
24384;DHT22;12504;52.870;8.798;2023-05-29T09:20:23;16.50;1.00
24384;DHT22;12504;52.870;8.798;2023-05-29T09:22:56;16.60;1.00
24384;DHT22;12504;52.870;8.798;2023-05-29T09:25:23;16.50;1.00
24384;DHT22;12504;52.870;8.798;2023-05-29T09:27:51;16.60;1.00
24384;DHT22;12504;52.870;8.798;2023-05-29T09:30:37;16.30;1.00
24384;DHT22;12504;52.870;8.798;2023-05-29T09:33:04;16.30;1.00
24384;DHT22;12504;52.870;8.798;2023-05-29T09:35:34;16.40;1.00
24384;DHT22;12504;52.870;8.798;2023-05-29T09:38:00;16.50;1.00
24384;DHT22;12504;52.870;8.798;2023-05-29T09:40:29;16.60;1.00
24384;DHT22;12504;52.870;8.798;2023-05-29T09:42:55;16.40;1.00
24384;DHT22;12504;52.870;8.798;2023-05-29T09:45:21;16.50;1.00
24384;DHT22;12504;52.870;8.798;2023-05-29T09:47:47;16.50;1.00
24384;DHT22;12504;52.870;8.798;2023-05-29T09:50:20;16.60;1.00
24384;DHT22;12504;52.870;8.798;2023-05-29T09:52:46;16.70;1.00
24384;DHT22;12504;52.870;8.798;2023-05-29T09:55:15;16.90;1.00
24384;DHT22;12504;52.870;8.798;2023-05-29T09:57:45;17.00;1.00
24384;DHT22;12504;52.870;8.798;2023-05-29T10:00:12;16.80;1.00
24384;DHT22;12504;52.870;8.798;2023-05-29T10:02:38;16.70;1.00
24384;DHT22;12504;52.870;8.798;2023-05-29T10:05:06;16.80;1.00
24384;DHT22;12504;52.870;8.798;2023-05-29T10:07:37;16.80;1.00
24384;DHT22;12504;52.870;8.798;2023-05-29T10:10:06;16.70;1.00
24384;DHT22;12504;52.870;8.798;2023-05-29T10:12:36;16.80;1.00
24384;DHT22;12504;52.870;8.798;2023-05-29T10:15:05;17.00;1.00
24384;DHT22;12504;52.870;8.798;2023-05-29T10:17:33;16.90;1.00
24384;DHT22;12504;52.870;8.798;2023-05-29T10:20:04;16.90;1.00
24384;DHT22;12504;52.870;8.798;2023-05-29T10:22:32;17.00;1.00
24384;DHT22;12504;52.870;8.798;2023-05-29T10:25:01;17.20;1.00
24384;DHT22;12504;52.870;8.798;2023-05-29T10:27:28;17.70;1.00
24384;DHT22;12504;52.870;8.798;2023-05-29T10:29:59;17.80;1.00
24384;DHT22;12504;52.870;8.798;2023-05-29T10:35:29;18.10;1.00
24384;DHT22;12504;52.870;8.798;2023-05-29T10:37:58;18.60;1.00
24384;DHT22;12504;52.870;8.798;2023-05-29T10:40:27;19.10;1.00
24384;DHT22;12504;52.870;8.798;2023-05-29T10:42:53;19.20;1.00
24384;DHT22;12504;52.870;8.798;2023-05-29T10:50:35;20.40;99.90
24384;DHT22;12504;52.870;8.798;2023-05-29T10:53:08;21.00;99.90
24384;DHT22;12504;52.870;8.798;2023-05-29T10:55:37;21.20;99.90
24384;DHT22;12504;52.870;8.798;2023-05-29T10:58:06;21.70;99.90
24384;DHT22;12504;52.870;8.798;2023-05-29T11:00:32;22.60;99.90
24384;DHT22;12504;52.870;8.798;2023-05-29T11:03:02;22.90;99.90
24384;DHT22;12504;52.870;8.798;2023-05-29T11:05:30;22.90;99.90
24384;DHT22;12504;52.870;8.798;2023-05-29T11:07:56;23.30;99.90
24384;DHT22;12504;52.870;8.798;2023-05-29T11:13:07;24.70;99.90
24384;DHT22;12504;52.870;8.798;2023-05-29T11:15:33;24.60;1.00
24384;DHT22;12504;52.870;8.798;2023-05-29T11:18:08;24.50;1.00
24384;DHT22;12504;52.870;8.798;2023-05-29T11:20:41;24.20;9.10
24384;DHT22;12504;52.870;8.798;2023-05-29T11:23:14;23.60;1.00
24384;DHT22;12504;52.870;8.798;2023-05-29T11:25:41;23.80;47.90
24384;DHT22;12504;52.870;8.798;2023-05-29T11:28:09;23.90;79.30
24384;DHT22;12504;52.870;8.798;2023-05-29T11:30:42;23.70;65.70
24384;DHT22;12504;52.870;8.798;2023-05-29T11:33:08;23.50;99.90
24384;DHT22;12504;52.870;8.798;2023-05-29T11:35:41;23.40;99.90
24384;DHT22;12504;52.870;8.798;2023-05-29T11:38:08;23.20;99.90
24384;DHT22;12504;52.870;8.798;2023-05-29T11:40:37;22.90;99.90
24384;DHT22;12504;52.870;8.798;2023-05-29T11:43:04;22.90;99.90
24384;DHT22;12504;52.870;8.798;2023-05-29T11:45:31;22.70;99.90
24384;DHT22;12504;52.870;8.798;2023-05-29T11:48:01;22.90;99.90
24384;DHT22;12504;52.870;8.798;2023-05-29T11:50:28;23.90;99.90
24384;DHT22;12504;52.870;8.798;2023-05-29T11:52:54;24.30;99.90
24384;DHT22;12504;52.870;8.798;2023-05-29T11:55:21;24.70;99.90
24384;DHT22;12504;52.870;8.798;2023-05-29T11:57:51;25.00;99.90
24384;DHT22;12504;52.870;8.798;2023-05-29T12:00:18;24.80;99.90
24384;DHT22;12504;52.870;8.798;2023-05-29T12:02:44;24.70;99.90
24384;DHT22;12504;52.870;8.798;2023-05-29T12:05:12;24.30;99.90
24384;DHT22;12504;52.870;8.798;2023-05-29T12:07:50;24.00;99.90
24384;DHT22;12504;52.870;8.798;2023-05-29T12:10:17;23.90;99.90
24384;DHT22;12504;52.870;8.798;2023-05-29T12:12:58;24.80;99.90
24384;DHT22;12504;52.870;8.798;2023-05-29T12:15:25;24.70;99.90
24384;DHT22;12504;52.870;8.798;2023-05-29T12:17:51;24.80;99.90
24384;DHT22;12504;52.870;8.798;2023-05-29T12:20:19;24.40;99.90
24384;DHT22;12504;52.870;8.798;2023-05-29T12:22:46;24.70;99.90
24384;DHT22;12504;52.870;8.798;2023-05-29T12:27:45;24.40;99.90
24384;DHT22;12504;52.870;8.798;2023-05-29T12:30:24;24.50;99.90
24384;DHT22;12504;52.870;8.798;2023-05-29T12:32:51;24.30;99.90
24384;DHT22;12504;52.870;8.798;2023-05-29T12:35:21;24.90;99.90
24384;DHT22;12504;52.870;8.798;2023-05-29T12:37:48;24.50;99.90
24384;DHT22;12504;52.870;8.798;2023-05-29T12:40:24;23.60;99.90
24384;DHT22;12504;52.870;8.798;2023-05-29T12:43:04;24.10;99.90
24384;DHT22;12504;52.870;8.798;2023-05-29T12:45:32;24.00;99.90
24384;DHT22;12504;52.870;8.798;2023-05-29T12:48:03;24.40;99.90
24384;DHT22;12504;52.870;8.798;2023-05-29T12:50:30;24.30;99.90
24384;DHT22;12504;52.870;8.798;2023-05-29T12:53:04;24.50;99.90
24384;DHT22;12504;52.870;8.798;2023-05-29T12:55:31;24.60;99.90
24384;DHT22;12504;52.870;8.798;2023-05-29T12:58:07;24.80;99.90
24384;DHT22;12504;52.870;8.798;2023-05-29T13:00:35;24.10;99.90
24384;DHT22;12504;52.870;8.798;2023-05-29T13:03:02;24.40;99.90
24384;DHT22;12504;52.870;8.798;2023-05-29T13:05:28;24.30;99.90
24384;DHT22;12504;52.870;8.798;2023-05-29T13:07:54;23.60;99.90
24384;DHT22;12504;52.870;8.798;2023-05-29T13:10:20;23.40;99.90
24384;DHT22;12504;52.870;8.798;2023-05-29T13:12:47;23.40;99.90
24384;DHT22;12504;52.870;8.798;2023-05-29T13:15:14;23.40;99.90
24384;DHT22;12504;52.870;8.798;2023-05-29T13:17:40;23.00;99.90
24384;DHT22;12504;52.870;8.798;2023-05-29T13:20:07;22.90;99.90
24384;DHT22;12504;52.870;8.798;2023-05-29T13:22:33;23.30;99.90
24384;DHT22;12504;52.870;8.798;2023-05-29T13:24:59;23.20;99.90
24384;DHT22;12504;52.870;8.798;2023-05-29T13:27:25;23.10;99.90
24384;DHT22;12504;52.870;8.798;2023-05-29T13:29:52;23.40;99.90
24384;DHT22;12504;52.870;8.798;2023-05-29T13:32:17;23.10;99.90
24384;DHT22;12504;52.870;8.798;2023-05-29T13:34:43;23.20;99.90
24384;DHT22;12504;52.870;8.798;2023-05-29T13:37:09;23.40;99.90
24384;DHT22;12504;52.870;8.798;2023-05-29T13:39:35;22.80;99.90
24384;DHT22;12504;52.870;8.798;2023-05-29T13:42:02;22.40;99.90
24384;DHT22;12504;52.870;8.798;2023-05-29T13:44:29;22.50;99.90
24384;DHT22;12504;52.870;8.798;2023-05-29T13:46:55;22.70;99.90
24384;DHT22;12504;52.870;8.798;2023-05-29T13:49:20;22.60;99.90
24384;DHT22;12504;52.870;8.798;2023-05-29T13:51:47;22.50;99.90
24384;DHT22;12504;52.870;8.798;2023-05-29T13:54:15;22.30;99.90
24384;DHT22;12504;52.870;8.798;2023-05-29T13:56:42;22.10;99.90
24384;DHT22;12504;52.870;8.798;2023-05-29T13:59:08;22.00;99.90
24384;DHT22;12504;52.870;8.798;2023-05-29T14:01:33;22.40;99.90
24384;DHT22;12504;52.870;8.798;2023-05-29T14:04:00;22.60;99.90
24384;DHT22;12504;52.870;8.798;2023-05-29T14:06:27;22.50;99.90
24384;DHT22;12504;52.870;8.798;2023-05-29T14:08:53;22.50;99.90
24384;DHT22;12504;52.870;8.798;2023-05-29T14:11:19;22.70;99.90
24384;DHT22;12504;52.870;8.798;2023-05-29T14:13:45;22.70;99.90
24384;DHT22;12504;52.870;8.798;2023-05-29T14:16:11;22.20;99.90
24384;DHT22;12504;52.870;8.798;2023-05-29T14:18:37;21.90;99.90
24384;DHT22;12504;52.870;8.798;2023-05-29T14:21:02;22.50;99.90
24384;DHT22;12504;52.870;8.798;2023-05-29T14:23:28;22.40;99.90
24384;DHT22;12504;52.870;8.798;2023-05-29T14:25:54;22.30;99.90
24384;DHT22;12504;52.870;8.798;2023-05-29T14:28:20;22.20;99.90
24384;DHT22;12504;52.870;8.798;2023-05-29T14:30:45;22.30;99.90
24384;DHT22;12504;52.870;8.798;2023-05-29T14:33:11;22.60;99.90
24384;DHT22;12504;52.870;8.798;2023-05-29T14:35:37;22.70;99.90
24384;DHT22;12504;52.870;8.798;2023-05-29T14:38:02;22.50;99.90
24384;DHT22;12504;52.870;8.798;2023-05-29T14:40:28;22.30;99.90
24384;DHT22;12504;52.870;8.798;2023-05-29T14:42:54;22.10;99.90
24384;DHT22;12504;52.870;8.798;2023-05-29T14:45:19;22.00;99.90
24384;DHT22;12504;52.870;8.798;2023-05-29T14:47:45;21.90;99.90
24384;DHT22;12504;52.870;8.798;2023-05-29T14:50:14;22.00;99.90
24384;DHT22;12504;52.870;8.798;2023-05-29T14:52:40;22.10;99.90
24384;DHT22;12504;52.870;8.798;2023-05-29T14:55:06;22.00;99.90
24384;DHT22;12504;52.870;8.798;2023-05-29T14:57:32;22.00;99.90
24384;DHT22;12504;52.870;8.798;2023-05-29T15:00:03;22.10;99.90
24384;DHT22;12504;52.870;8.798;2023-05-29T15:02:31;21.70;99.90
24384;DHT22;12504;52.870;8.798;2023-05-29T15:04:57;21.90;99.90
24384;DHT22;12504;52.870;8.798;2023-05-29T15:07:22;21.80;99.90
24384;DHT22;12504;52.870;8.798;2023-05-29T15:09:48;22.10;99.90
24384;DHT22;12504;52.870;8.798;2023-05-29T15:12:13;21.80;99.90
24384;DHT22;12504;52.870;8.798;2023-05-29T15:14:39;21.70;99.90
24384;DHT22;12504;52.870;8.798;2023-05-29T15:17:05;21.50;99.90
24384;DHT22;12504;52.870;8.798;2023-05-29T15:19:30;21.30;99.90
24384;DHT22;12504;52.870;8.798;2023-05-29T15:21:57;21.10;99.90
24384;DHT22;12504;52.870;8.798;2023-05-29T15:24:22;21.00;99.90
24384;DHT22;12504;52.870;8.798;2023-05-29T15:26:48;20.90;99.90
24384;DHT22;12504;52.870;8.798;2023-05-29T15:29:14;20.80;99.90
24384;DHT22;12504;52.870;8.798;2023-05-29T15:31:39;20.70;99.90
24384;DHT22;12504;52.870;8.798;2023-05-29T15:34:05;20.50;99.90
24384;DHT22;12504;52.870;8.798;2023-05-29T15:36:30;20.40;99.90
24384;DHT22;12504;52.870;8.798;2023-05-29T15:38:56;20.80;99.90
24384;DHT22;12504;52.870;8.798;2023-05-29T15:41:22;20.40;99.90
24384;DHT22;12504;52.870;8.798;2023-05-29T15:43:54;20.40;99.90
24384;DHT22;12504;52.870;8.798;2023-05-29T15:46:19;20.50;99.90
24384;DHT22;12504;52.870;8.798;2023-05-29T15:48:45;20.60;99.90
24384;DHT22;12504;52.870;8.798;2023-05-29T15:51:10;20.70;99.90
24384;DHT22;12504;52.870;8.798;2023-05-29T15:53:37;20.20;99.90
24384;DHT22;12504;52.870;8.798;2023-05-29T15:56:02;20.30;99.90
24384;DHT22;12504;52.870;8.798;2023-05-29T15:58:28;20.30;99.90
24384;DHT22;12504;52.870;8.798;2023-05-29T16:00:53;20.50;99.90